sensor_id;sensor_type;location;lat;lon;timestamp;temperature;humidity
5276;DHT22;2661;50.786;12.728;2022-12-18T00:01:56;-9.70;99.90
5276;DHT22;2661;50.786;12.728;2022-12-18T00:04:23;-9.60;99.90
5276;DHT22;2661;50.786;12.728;2022-12-18T00:06:50;-9.40;99.90
5276;DHT22;2661;50.786;12.728;2022-12-18T00:09:17;-9.20;99.90
5276;DHT22;2661;50.786;12.728;2022-12-18T00:11:43;-9.10;99.90
5276;DHT22;2661;50.786;12.728;2022-12-18T00:14:11;-9.10;99.90
5276;DHT22;2661;50.786;12.728;2022-12-18T00:16:38;-9.30;99.90
5276;DHT22;2661;50.786;12.728;2022-12-18T00:19:05;-9.60;99.90
5276;DHT22;2661;50.786;12.728;2022-12-18T00:21:31;-9.60;99.90
5276;DHT22;2661;50.786;12.728;2022-12-18T00:23:59;-9.70;99.90
5276;DHT22;2661;50.786;12.728;2022-12-18T00:26:27;-9.60;99.90
5276;DHT22;2661;50.786;12.728;2022-12-18T00:28:54;-9.60;99.90
5276;DHT22;2661;50.786;12.728;2022-12-18T00:31:22;-9.60;99.90
5276;DHT22;2661;50.786;12.728;2022-12-18T00:33:49;-9.50;99.90
5276;DHT22;2661;50.786;12.728;2022-12-18T00:36:22;-9.50;99.90
5276;DHT22;2661;50.786;12.728;2022-12-18T00:38:49;-9.40;99.90
5276;DHT22;2661;50.786;12.728;2022-12-18T00:41:16;-9.50;99.90
5276;DHT22;2661;50.786;12.728;2022-12-18T00:44:03;-9.40;99.90
5276;DHT22;2661;50.786;12.728;2022-12-18T00:46:29;-9.40;99.90
5276;DHT22;2661;50.786;12.728;2022-12-18T00:48:56;-9.60;99.90
5276;DHT22;2661;50.786;12.728;2022-12-18T00:51:23;-9.80;99.90
5276;DHT22;2661;50.786;12.728;2022-12-18T00:53:51;-9.80;99.90
5276;DHT22;2661;50.786;12.728;2022-12-18T00:56:18;-9.80;99.90
5276;DHT22;2661;50.786;12.728;2022-12-18T00:58:44;-9.80;99.90
5276;DHT22;2661;50.786;12.728;2022-12-18T01:01:11;-9.90;99.90
5276;DHT22;2661;50.786;12.728;2022-12-18T01:03:37;-9.90;99.90
5276;DHT22;2661;50.786;12.728;2022-12-18T01:06:07;-9.80;99.90
5276;DHT22;2661;50.786;12.728;2022-12-18T01:08:34;-9.70;99.90
5276;DHT22;2661;50.786;12.728;2022-12-18T01:11:01;-9.60;99.90
5276;DHT22;2661;50.786;12.728;2022-12-18T01:13:27;-9.50;99.90
5276;DHT22;2661;50.786;12.728;2022-12-18T01:15:54;-9.40;99.90
5276;DHT22;2661;50.786;12.728;2022-12-18T01:18:21;-9.50;99.90
5276;DHT22;2661;50.786;12.728;2022-12-18T01:20:47;-9.60;99.90
5276;DHT22;2661;50.786;12.728;2022-12-18T01:23:14;-9.80;99.90
5276;DHT22;2661;50.786;12.728;2022-12-18T01:25:40;-9.80;99.90
5276;DHT22;2661;50.786;12.728;2022-12-18T01:28:07;-9.80;99.90
5276;DHT22;2661;50.786;12.728;2022-12-18T01:30:34;-9.80;99.90
5276;DHT22;2661;50.786;12.728;2022-12-18T01:33:00;-9.70;99.90
5276;DHT22;2661;50.786;12.728;2022-12-18T01:35:27;-9.80;99.90
5276;DHT22;2661;50.786;12.728;2022-12-18T01:37:54;-9.70;99.90
5276;DHT22;2661;50.786;12.728;2022-12-18T01:40:21;-9.60;99.90
5276;DHT22;2661;50.786;12.728;2022-12-18T01:42:53;-9.60;99.90
5276;DHT22;2661;50.786;12.728;2022-12-18T01:45:21;-9.70;99.90
5276;DHT22;2661;50.786;12.728;2022-12-18T01:47:50;-9.60;99.90
5276;DHT22;2661;50.786;12.728;2022-12-18T01:50:20;-9.50;99.90
5276;DHT22;2661;50.786;12.728;2022-12-18T01:52:55;-9.70;99.90
5276;DHT22;2661;50.786;12.728;2022-12-18T01:55:23;-9.90;99.90
5276;DHT22;2661;50.786;12.728;2022-12-18T01:57:55;-10.10;99.90
5276;DHT22;2661;50.786;12.728;2022-12-18T02:00:22;-9.90;99.90
5276;DHT22;2661;50.786;12.728;2022-12-18T02:02:49;-9.90;99.90
5276;DHT22;2661;50.786;12.728;2022-12-18T02:05:18;-9.80;99.90
5276;DHT22;2661;50.786;12.728;2022-12-18T02:07:53;-9.80;99.90
5276;DHT22;2661;50.786;12.728;2022-12-18T02:10:24;-9.80;99.90
5276;DHT22;2661;50.786;12.728;2022-12-18T02:15:31;-9.80;99.90
5276;DHT22;2661;50.786;12.728;2022-12-18T02:20:35;-9.80;99.90
5276;DHT22;2661;50.786;12.728;2022-12-18T02:28:18;-10.00;99.90
5276;DHT22;2661;50.786;12.728;2022-12-18T02:30:45;-10.10;99.90
5276;DHT22;2661;50.786;12.728;2022-12-18T02:33:14;-10.10;99.90
5276;DHT22;2661;50.786;12.728;2022-12-18T02:35:41;-10.10;99.90
5276;DHT22;2661;50.786;12.728;2022-12-18T02:38:08;-10.30;99.90
5276;DHT22;2661;50.786;12.728;2022-12-18T02:40:35;-10.40;99.90
5276;DHT22;2661;50.786;12.728;2022-12-18T02:43:06;-10.30;99.90
5276;DHT22;2661;50.786;12.728;2022-12-18T02:45:33;-10.10;99.90
5276;DHT22;2661;50.786;12.728;2022-12-18T02:48:00;-10.00;99.90
5276;DHT22;2661;50.786;12.728;2022-12-18T02:50:30;-10.00;99.90
5276;DHT22;2661;50.786;12.728;2022-12-18T02:55:30;-10.20;99.90
5276;DHT22;2661;50.786;12.728;2022-12-18T02:58:10;-10.20;99.90
5276;DHT22;2661;50.786;12.728;2022-12-18T03:01:23;-10.30;99.90
5276;DHT22;2661;50.786;12.728;2022-12-18T03:03:30;-10.30;99.90
5276;DHT22;2661;50.786;12.728;2022-12-18T03:06:06;-10.20;99.90
5276;DHT22;2661;50.786;12.728;2022-12-18T03:08:35;-10.10;99.90
5276;DHT22;2661;50.786;12.728;2022-12-18T03:11:07;-10.10;99.90
5276;DHT22;2661;50.786;12.728;2022-12-18T03:13:35;-10.20;99.90
5276;DHT22;2661;50.786;12.728;2022-12-18T03:16:04;-10.20;99.90
5276;DHT22;2661;50.786;12.728;2022-12-18T03:18:38;-10.20;99.90
5276;DHT22;2661;50.786;12.728;2022-12-18T03:21:08;-10.20;99.90
5276;DHT22;2661;50.786;12.728;2022-12-18T03:23:39;-10.30;99.90
5276;DHT22;2661;50.786;12.728;2022-12-18T03:26:09;-10.30;99.90
5276;DHT22;2661;50.786;12.728;2022-12-18T03:28:37;-10.20;99.90
5276;DHT22;2661;50.786;12.728;2022-12-18T03:31:05;-10.10;99.90
5276;DHT22;2661;50.786;12.728;2022-12-18T03:33:35;-10.10;99.90
5276;DHT22;2661;50.786;12.728;2022-12-18T03:36:04;-10.10;99.90
5276;DHT22;2661;50.786;12.728;2022-12-18T03:38:31;-10.30;99.90
5276;DHT22;2661;50.786;12.728;2022-12-18T03:44:00;-10.50;99.90
5276;DHT22;2661;50.786;12.728;2022-12-18T03:46:33;-10.50;99.90
5276;DHT22;2661;50.786;12.728;2022-12-18T03:51:48;-10.40;99.90
5276;DHT22;2661;50.786;12.728;2022-12-18T03:54:17;-10.50;99.90
5276;DHT22;2661;50.786;12.728;2022-12-18T03:56:45;-10.50;99.90
5276;DHT22;2661;50.786;12.728;2022-12-18T03:59:13;-10.40;99.90
5276;DHT22;2661;50.786;12.728;2022-12-18T04:01:42;-10.40;99.90
5276;DHT22;2661;50.786;12.728;2022-12-18T04:04:11;-10.50;99.90
5276;DHT22;2661;50.786;12.728;2022-12-18T04:06:39;-10.50;99.90
5276;DHT22;2661;50.786;12.728;2022-12-18T04:09:06;-10.40;99.90
5276;DHT22;2661;50.786;12.728;2022-12-18T04:11:33;-10.40;99.90
5276;DHT22;2661;50.786;12.728;2022-12-18T04:13:59;-10.30;99.90
5276;DHT22;2661;50.786;12.728;2022-12-18T04:16:31;-10.20;99.90
5276;DHT22;2661;50.786;12.728;2022-12-18T04:18:57;-10.20;99.90
5276;DHT22;2661;50.786;12.728;2022-12-18T04:21:24;-10.40;99.90
5276;DHT22;2661;50.786;12.728;2022-12-18T04:23:50;-10.40;99.90
5276;DHT22;2661;50.786;12.728;2022-12-18T04:26:17;-10.50;99.90
5276;DHT22;2661;50.786;12.728;2022-12-18T04:28:44;-10.70;99.90
5276;DHT22;2661;50.786;12.728;2022-12-18T04:31:10;-10.80;99.90
5276;DHT22;2661;50.786;12.728;2022-12-18T04:33:37;-10.80;99.90
5276;DHT22;2661;50.786;12.728;2022-12-18T04:36:04;-10.80;99.90
5276;DHT22;2661;50.786;12.728;2022-12-18T04:38:31;-10.90;99.90
5276;DHT22;2661;50.786;12.728;2022-12-18T04:40:57;-11.00;99.90
5276;DHT22;2661;50.786;12.728;2022-12-18T04:43:24;-11.00;99.90
5276;DHT22;2661;50.786;12.728;2022-12-18T04:45:51;-10.90;99.90
5276;DHT22;2661;50.786;12.728;2022-12-18T04:48:17;-10.80;99.90
5276;DHT22;2661;50.786;12.728;2022-12-18T04:50:44;-10.60;99.90
5276;DHT22;2661;50.786;12.728;2022-12-18T04:53:10;-10.50;99.90
5276;DHT22;2661;50.786;12.728;2022-12-18T04:55:37;-10.30;99.90
5276;DHT22;2661;50.786;12.728;2022-12-18T04:58:04;-10.20;99.90
5276;DHT22;2661;50.786;12.728;2022-12-18T05:00:30;-10.20;99.90
5276;DHT22;2661;50.786;12.728;2022-12-18T05:02:57;-10.40;99.90
5276;DHT22;2661;50.786;12.728;2022-12-18T05:05:24;-10.40;99.90
5276;DHT22;2661;50.786;12.728;2022-12-18T05:07:51;-10.40;99.90
5276;DHT22;2661;50.786;12.728;2022-12-18T05:10:17;-10.40;99.90
5276;DHT22;2661;50.786;12.728;2022-12-18T05:12:44;-10.40;99.90
5276;DHT22;2661;50.786;12.728;2022-12-18T05:15:27;-10.30;99.90
5276;DHT22;2661;50.786;12.728;2022-12-18T05:17:55;-10.20;99.90
5276;DHT22;2661;50.786;12.728;2022-12-18T05:20:22;-10.30;99.90
5276;DHT22;2661;50.786;12.728;2022-12-18T05:22:48;-10.30;99.90
5276;DHT22;2661;50.786;12.728;2022-12-18T05:25:15;-10.30;99.90
5276;DHT22;2661;50.786;12.728;2022-12-18T05:27:41;-10.40;99.90
5276;DHT22;2661;50.786;12.728;2022-12-18T05:30:08;-10.40;99.90
5276;DHT22;2661;50.786;12.728;2022-12-18T05:32:35;-10.60;99.90
5276;DHT22;2661;50.786;12.728;2022-12-18T05:35:02;-10.50;99.90
5276;DHT22;2661;50.786;12.728;2022-12-18T05:37:28;-10.60;99.90
5276;DHT22;2661;50.786;12.728;2022-12-18T05:39:55;-10.50;99.90
5276;DHT22;2661;50.786;12.728;2022-12-18T05:42:22;-10.50;99.90
5276;DHT22;2661;50.786;12.728;2022-12-18T05:44:49;-10.50;99.90
5276;DHT22;2661;50.786;12.728;2022-12-18T05:47:15;-10.60;99.90
5276;DHT22;2661;50.786;12.728;2022-12-18T05:49:42;-10.50;99.90
5276;DHT22;2661;50.786;12.728;2022-12-18T05:52:08;-10.60;99.90
5276;DHT22;2661;50.786;12.728;2022-12-18T05:54:35;-10.70;99.90
5276;DHT22;2661;50.786;12.728;2022-12-18T05:57:01;-10.70;99.90
5276;DHT22;2661;50.786;12.728;2022-12-18T05:59:28;-10.90;99.90
5276;DHT22;2661;50.786;12.728;2022-12-18T06:01:55;-11.10;99.90
5276;DHT22;2661;50.786;12.728;2022-12-18T06:04:21;-11.20;99.90
5276;DHT22;2661;50.786;12.728;2022-12-18T06:06:48;-11.10;99.90
5276;DHT22;2661;50.786;12.728;2022-12-18T06:09:15;-11.10;99.90
5276;DHT22;2661;50.786;12.728;2022-12-18T06:11:41;-10.90;99.90
5276;DHT22;2661;50.786;12.728;2022-12-18T06:14:08;-10.70;99.90
5276;DHT22;2661;50.786;12.728;2022-12-18T06:16:35;-10.60;99.90
5276;DHT22;2661;50.786;12.728;2022-12-18T06:19:03;-10.40;99.90
5276;DHT22;2661;50.786;12.728;2022-12-18T06:21:30;-10.40;99.90
5276;DHT22;2661;50.786;12.728;2022-12-18T06:23:57;-10.40;99.90
5276;DHT22;2661;50.786;12.728;2022-12-18T06:26:24;-10.30;99.90
5276;DHT22;2661;50.786;12.728;2022-12-18T06:28:54;-10.30;99.90
5276;DHT22;2661;50.786;12.728;2022-12-18T06:31:20;-10.30;99.90
5276;DHT22;2661;50.786;12.728;2022-12-18T06:33:47;-10.50;99.90
5276;DHT22;2661;50.786;12.728;2022-12-18T06:36:14;-10.70;99.90
5276;DHT22;2661;50.786;12.728;2022-12-18T06:38:41;-10.70;99.90
5276;DHT22;2661;50.786;12.728;2022-12-18T06:41:12;-10.80;99.90
5276;DHT22;2661;50.786;12.728;2022-12-18T06:43:39;-10.70;99.90
5276;DHT22;2661;50.786;12.728;2022-12-18T06:46:07;-10.80;99.90
5276;DHT22;2661;50.786;12.728;2022-12-18T06:48:33;-10.80;99.90
5276;DHT22;2661;50.786;12.728;2022-12-18T06:51:00;-10.80;99.90
5276;DHT22;2661;50.786;12.728;2022-12-18T06:53:27;-10.60;99.90
5276;DHT22;2661;50.786;12.728;2022-12-18T06:56:01;-10.60;99.90
5276;DHT22;2661;50.786;12.728;2022-12-18T06:58:35;-10.60;99.90
5276;DHT22;2661;50.786;12.728;2022-12-18T07:01:05;-10.80;99.90
5276;DHT22;2661;50.786;12.728;2022-12-18T07:03:32;-10.80;99.90
5276;DHT22;2661;50.786;12.728;2022-12-18T07:05:59;-10.60;99.90
5276;DHT22;2661;50.786;12.728;2022-12-18T07:08:25;-10.70;99.90
5276;DHT22;2661;50.786;12.728;2022-12-18T07:10:52;-10.60;99.90
5276;DHT22;2661;50.786;12.728;2022-12-18T07:13:22;-10.60;99.90
5276;DHT22;2661;50.786;12.728;2022-12-18T07:15:48;-10.70;99.90
5276;DHT22;2661;50.786;12.728;2022-12-18T07:18:15;-10.80;99.90
5276;DHT22;2661;50.786;12.728;2022-12-18T07:20:41;-10.80;99.90
5276;DHT22;2661;50.786;12.728;2022-12-18T07:23:08;-11.00;99.90
5276;DHT22;2661;50.786;12.728;2022-12-18T07:25:35;-11.20;99.90
5276;DHT22;2661;50.786;12.728;2022-12-18T07:28:02;-11.20;99.90
5276;DHT22;2661;50.786;12.728;2022-12-18T07:30:29;-11.30;99.90
5276;DHT22;2661;50.786;12.728;2022-12-18T07:32:56;-11.00;99.90
5276;DHT22;2661;50.786;12.728;2022-12-18T07:35:22;-10.80;99.90
5276;DHT22;2661;50.786;12.728;2022-12-18T07:37:51;-10.70;99.90
5276;DHT22;2661;50.786;12.728;2022-12-18T07:40:17;-10.70;99.90
5276;DHT22;2661;50.786;12.728;2022-12-18T07:42:44;-10.60;99.90
5276;DHT22;2661;50.786;12.728;2022-12-18T07:45:10;-10.60;99.90
5276;DHT22;2661;50.786;12.728;2022-12-18T07:47:37;-10.70;99.90
5276;DHT22;2661;50.786;12.728;2022-12-18T07:50:03;-10.60;99.90
5276;DHT22;2661;50.786;12.728;2022-12-18T07:52:31;-10.40;99.90
5276;DHT22;2661;50.786;12.728;2022-12-18T07:54:58;-10.30;99.90
5276;DHT22;2661;50.786;12.728;2022-12-18T07:57:25;-10.30;99.90
5276;DHT22;2661;50.786;12.728;2022-12-18T08:00:11;-10.30;99.90
5276;DHT22;2661;50.786;12.728;2022-12-18T08:02:38;-10.30;99.90
5276;DHT22;2661;50.786;12.728;2022-12-18T08:05:05;-10.30;99.90
5276;DHT22;2661;50.786;12.728;2022-12-18T08:07:56;-10.10;99.90
5276;DHT22;2661;50.786;12.728;2022-12-18T08:10:24;-10.00;99.90
5276;DHT22;2661;50.786;12.728;2022-12-18T08:12:51;-9.90;99.90
5276;DHT22;2661;50.786;12.728;2022-12-18T08:15:17;-10.10;99.90
5276;DHT22;2661;50.786;12.728;2022-12-18T08:17:44;-10.00;99.90
5276;DHT22;2661;50.786;12.728;2022-12-18T08:20:11;-9.90;99.90
5276;DHT22;2661;50.786;12.728;2022-12-18T08:22:37;-9.90;99.90
5276;DHT22;2661;50.786;12.728;2022-12-18T08:25:05;-9.90;99.90
5276;DHT22;2661;50.786;12.728;2022-12-18T08:27:32;-9.80;99.90
5276;DHT22;2661;50.786;12.728;2022-12-18T08:29:59;-9.70;99.90
5276;DHT22;2661;50.786;12.728;2022-12-18T08:32:26;-9.40;99.90
5276;DHT22;2661;50.786;12.728;2022-12-18T08:34:53;-9.30;99.90
5276;DHT22;2661;50.786;12.728;2022-12-18T08:37:19;-9.10;99.90
5276;DHT22;2661;50.786;12.728;2022-12-18T08:39:46;-9.10;99.90
5276;DHT22;2661;50.786;12.728;2022-12-18T08:42:13;-9.10;99.90
5276;DHT22;2661;50.786;12.728;2022-12-18T08:44:58;-9.00;99.90
5276;DHT22;2661;50.786;12.728;2022-12-18T08:47:24;-8.90;99.90
5276;DHT22;2661;50.786;12.728;2022-12-18T08:49:52;-8.80;99.90
5276;DHT22;2661;50.786;12.728;2022-12-18T08:52:18;-8.60;99.90
5276;DHT22;2661;50.786;12.728;2022-12-18T08:54:45;-8.40;99.90
5276;DHT22;2661;50.786;12.728;2022-12-18T08:57:12;-8.40;99.90
5276;DHT22;2661;50.786;12.728;2022-12-18T08:59:38;-8.40;99.90
5276;DHT22;2661;50.786;12.728;2022-12-18T09:02:05;-8.40;99.90
5276;DHT22;2661;50.786;12.728;2022-12-18T09:04:34;-8.40;99.90
5276;DHT22;2661;50.786;12.728;2022-12-18T09:07:01;-8.30;99.90
5276;DHT22;2661;50.786;12.728;2022-12-18T09:09:28;-8.10;99.90
5276;DHT22;2661;50.786;12.728;2022-12-18T09:11:55;-7.90;99.90
5276;DHT22;2661;50.786;12.728;2022-12-18T09:14:21;-7.90;99.90
5276;DHT22;2661;50.786;12.728;2022-12-18T09:16:48;-7.90;99.90
5276;DHT22;2661;50.786;12.728;2022-12-18T09:19:14;-7.80;99.90
5276;DHT22;2661;50.786;12.728;2022-12-18T09:21:41;-7.60;99.90
5276;DHT22;2661;50.786;12.728;2022-12-18T09:24:13;-7.50;99.90
5276;DHT22;2661;50.786;12.728;2022-12-18T09:26:40;-7.40;99.90
5276;DHT22;2661;50.786;12.728;2022-12-18T09:29:09;-7.20;99.90
5276;DHT22;2661;50.786;12.728;2022-12-18T09:31:35;-7.20;99.90
5276;DHT22;2661;50.786;12.728;2022-12-18T09:34:02;-7.10;99.90
5276;DHT22;2661;50.786;12.728;2022-12-18T09:36:29;-6.90;99.90
5276;DHT22;2661;50.786;12.728;2022-12-18T09:38:55;-6.80;99.90
5276;DHT22;2661;50.786;12.728;2022-12-18T09:43:53;-6.70;99.90
5276;DHT22;2661;50.786;12.728;2022-12-18T09:46:25;-6.70;99.90
5276;DHT22;2661;50.786;12.728;2022-12-18T09:48:54;-6.50;99.90
5276;DHT22;2661;50.786;12.728;2022-12-18T09:51:23;-6.50;99.90
5276;DHT22;2661;50.786;12.728;2022-12-18T09:53:56;-6.20;99.90
5276;DHT22;2661;50.786;12.728;2022-12-18T09:56:24;-6.20;99.90
5276;DHT22;2661;50.786;12.728;2022-12-18T09:59:00;-6.00;99.90
5276;DHT22;2661;50.786;12.728;2022-12-18T10:01:27;-5.90;99.90
5276;DHT22;2661;50.786;12.728;2022-12-18T10:04:07;-5.90;99.90
5276;DHT22;2661;50.786;12.728;2022-12-18T10:06:40;-5.80;99.90
5276;DHT22;2661;50.786;12.728;2022-12-18T10:11:52;-5.60;99.90
5276;DHT22;2661;50.786;12.728;2022-12-18T10:17:14;-5.40;99.90
5276;DHT22;2661;50.786;12.728;2022-12-18T10:19:52;-5.40;99.90
5276;DHT22;2661;50.786;12.728;2022-12-18T10:25:14;-5.30;99.90
5276;DHT22;2661;50.786;12.728;2022-12-18T10:27:41;-5.20;99.90
5276;DHT22;2661;50.786;12.728;2022-12-18T10:30:15;-5.20;99.90
5276;DHT22;2661;50.786;12.728;2022-12-18T10:32:42;-5.10;99.90
5276;DHT22;2661;50.786;12.728;2022-12-18T10:35:17;-5.00;99.90
5276;DHT22;2661;50.786;12.728;2022-12-18T10:38:00;-5.00;99.90
5276;DHT22;2661;50.786;12.728;2022-12-18T10:40:27;-5.00;99.90
5276;DHT22;2661;50.786;12.728;2022-12-18T10:43:04;-4.90;99.90
5276;DHT22;2661;50.786;12.728;2022-12-18T10:45:31;-4.80;99.90
5276;DHT22;2661;50.786;12.728;2022-12-18T10:47:57;-4.60;99.90
5276;DHT22;2661;50.786;12.728;2022-12-18T10:50:34;-4.60;99.90
5276;DHT22;2661;50.786;12.728;2022-12-18T10:53:23;-4.50;99.90
5276;DHT22;2661;50.786;12.728;2022-12-18T10:55:51;-4.50;99.90
5276;DHT22;2661;50.786;12.728;2022-12-18T10:58:29;-4.40;99.90
5276;DHT22;2661;50.786;12.728;2022-12-18T11:01:15;-4.30;99.90
5276;DHT22;2661;50.786;12.728;2022-12-18T11:03:43;-4.30;99.90
5276;DHT22;2661;50.786;12.728;2022-12-18T11:06:20;-4.30;99.90
5276;DHT22;2661;50.786;12.728;2022-12-18T11:08:57;-4.30;99.90
5276;DHT22;2661;50.786;12.728;2022-12-18T11:11:24;-4.30;99.90
5276;DHT22;2661;50.786;12.728;2022-12-18T11:16:24;-4.10;99.90
5276;DHT22;2661;50.786;12.728;2022-12-18T11:18:50;-4.00;99.90
5276;DHT22;2661;50.786;12.728;2022-12-18T11:21:17;-4.00;99.90
5276;DHT22;2661;50.786;12.728;2022-12-18T11:23:49;-3.90;99.90
5276;DHT22;2661;50.786;12.728;2022-12-18T11:26:19;-3.90;99.90
5276;DHT22;2661;50.786;12.728;2022-12-18T11:29:07;-3.90;99.90
5276;DHT22;2661;50.786;12.728;2022-12-18T11:31:34;-3.80;99.90
5276;DHT22;2661;50.786;12.728;2022-12-18T11:34:14;-3.80;99.90
5276;DHT22;2661;50.786;12.728;2022-12-18T11:36:59;-3.80;99.90
5276;DHT22;2661;50.786;12.728;2022-12-18T11:42:10;-3.60;99.90
5276;DHT22;2661;50.786;12.728;2022-12-18T11:44:47;-3.60;99.90
5276;DHT22;2661;50.786;12.728;2022-12-18T11:49:53;-3.40;99.90
5276;DHT22;2661;50.786;12.728;2022-12-18T11:52:22;-3.40;99.90
5276;DHT22;2661;50.786;12.728;2022-12-18T11:54:51;-3.20;99.90
5276;DHT22;2661;50.786;12.728;2022-12-18T12:00:07;-3.20;99.90
5276;DHT22;2661;50.786;12.728;2022-12-18T12:10:52;-3.20;99.90
5276;DHT22;2661;50.786;12.728;2022-12-18T12:18:22;-3.10;99.90
5276;DHT22;2661;50.786;12.728;2022-12-18T12:21:04;-3.10;99.90
5276;DHT22;2661;50.786;12.728;2022-12-18T12:26:04;-3.00;99.90
5276;DHT22;2661;50.786;12.728;2022-12-18T12:28:46;-2.90;99.90
5276;DHT22;2661;50.786;12.728;2022-12-18T12:31:20;-2.90;99.90
5276;DHT22;2661;50.786;12.728;2022-12-18T12:39:10;-2.70;99.90
5276;DHT22;2661;50.786;12.728;2022-12-18T12:41:40;-2.70;99.90
5276;DHT22;2661;50.786;12.728;2022-12-18T12:44:27;-2.60;99.90
5276;DHT22;2661;50.786;12.728;2022-12-18T12:46:56;-2.50;99.90
5276;DHT22;2661;50.786;12.728;2022-12-18T12:49:25;-2.50;99.90
5276;DHT22;2661;50.786;12.728;2022-12-18T12:51:55;-2.40;99.90
5276;DHT22;2661;50.786;12.728;2022-12-18T12:54:24;-2.30;99.90
5276;DHT22;2661;50.786;12.728;2022-12-18T13:04:49;-2.10;99.90
5276;DHT22;2661;50.786;12.728;2022-12-18T13:07:20;-2.10;99.90
5276;DHT22;2661;50.786;12.728;2022-12-18T13:12:57;-2.20;99.90
5276;DHT22;2661;50.786;12.728;2022-12-18T13:18:25;-2.20;99.90
5276;DHT22;2661;50.786;12.728;2022-12-18T13:20:49;-2.30;99.90
5276;DHT22;2661;50.786;12.728;2022-12-18T13:31:00;-2.20;99.90
5276;DHT22;2661;50.786;12.728;2022-12-18T13:38:34;-2.40;99.90
5276;DHT22;2661;50.786;12.728;2022-12-18T13:41:10;-2.40;99.90
5276;DHT22;2661;50.786;12.728;2022-12-18T13:43:57;-2.50;99.90
5276;DHT22;2661;50.786;12.728;2022-12-18T13:46:44;-2.50;99.90
5276;DHT22;2661;50.786;12.728;2022-12-18T13:51:43;-2.60;99.90
5276;DHT22;2661;50.786;12.728;2022-12-18T13:56:43;-2.80;99.90
5276;DHT22;2661;50.786;12.728;2022-12-18T14:01:36;-3.00;99.90
5276;DHT22;2661;50.786;12.728;2022-12-18T14:04:09;-3.10;99.90
5276;DHT22;2661;50.786;12.728;2022-12-18T14:06:36;-3.20;99.90
5276;DHT22;2661;50.786;12.728;2022-12-18T14:09:03;-3.30;99.90
5276;DHT22;2661;50.786;12.728;2022-12-18T14:11:30;-3.40;99.90
5276;DHT22;2661;50.786;12.728;2022-12-18T14:13:56;-3.50;99.90
5276;DHT22;2661;50.786;12.728;2022-12-18T14:16:23;-3.50;99.90
5276;DHT22;2661;50.786;12.728;2022-12-18T14:18:52;-3.50;99.90
5276;DHT22;2661;50.786;12.728;2022-12-18T14:21:28;-3.50;99.90
5276;DHT22;2661;50.786;12.728;2022-12-18T14:24:15;-3.60;99.90
5276;DHT22;2661;50.786;12.728;2022-12-18T14:26:45;-3.60;99.90
5276;DHT22;2661;50.786;12.728;2022-12-18T14:29:21;-3.70;99.90
5276;DHT22;2661;50.786;12.728;2022-12-18T14:32:03;-3.80;99.90
5276;DHT22;2661;50.786;12.728;2022-12-18T14:34:30;-3.80;99.90
5276;DHT22;2661;50.786;12.728;2022-12-18T14:36:56;-3.90;99.90
5276;DHT22;2661;50.786;12.728;2022-12-18T14:39:23;-4.00;99.90
5276;DHT22;2661;50.786;12.728;2022-12-18T14:41:52;-4.00;99.90
5276;DHT22;2661;50.786;12.728;2022-12-18T14:44:19;-4.10;99.90
5276;DHT22;2661;50.786;12.728;2022-12-18T14:46:47;-4.10;99.90
5276;DHT22;2661;50.786;12.728;2022-12-18T14:52:26;-4.30;99.90
5276;DHT22;2661;50.786;12.728;2022-12-18T14:54:53;-4.40;99.90
5276;DHT22;2661;50.786;12.728;2022-12-18T14:57:21;-4.50;99.90
5276;DHT22;2661;50.786;12.728;2022-12-18T14:59:48;-4.50;99.90
5276;DHT22;2661;50.786;12.728;2022-12-18T15:02:19;-4.50;99.90
5276;DHT22;2661;50.786;12.728;2022-12-18T15:04:53;-4.60;99.90
5276;DHT22;2661;50.786;12.728;2022-12-18T15:07:26;-4.70;99.90
5276;DHT22;2661;50.786;12.728;2022-12-18T15:17:56;-4.70;99.90
5276;DHT22;2661;50.786;12.728;2022-12-18T15:20:23;-4.70;99.90
5276;DHT22;2661;50.786;12.728;2022-12-18T15:22:49;-4.80;99.90
5276;DHT22;2661;50.786;12.728;2022-12-18T15:25:22;-4.80;99.90
5276;DHT22;2661;50.786;12.728;2022-12-18T15:27:50;-4.90;99.90
5276;DHT22;2661;50.786;12.728;2022-12-18T15:30:19;-4.90;99.90
5276;DHT22;2661;50.786;12.728;2022-12-18T15:32:46;-4.90;99.90
5276;DHT22;2661;50.786;12.728;2022-12-18T15:35:15;-5.00;99.90
5276;DHT22;2661;50.786;12.728;2022-12-18T15:37:43;-5.00;99.90
5276;DHT22;2661;50.786;12.728;2022-12-18T15:40:14;-5.00;99.90
5276;DHT22;2661;50.786;12.728;2022-12-18T15:42:43;-5.00;99.90
5276;DHT22;2661;50.786;12.728;2022-12-18T15:45:28;-5.00;99.90
5276;DHT22;2661;50.786;12.728;2022-12-18T15:47:55;-5.10;99.90
5276;DHT22;2661;50.786;12.728;2022-12-18T15:50:21;-5.10;99.90
5276;DHT22;2661;50.786;12.728;2022-12-18T15:52:49;-5.20;99.90
5276;DHT22;2661;50.786;12.728;2022-12-18T15:55:17;-5.30;99.90
5276;DHT22;2661;50.786;12.728;2022-12-18T15:58:04;-5.30;99.90
5276;DHT22;2661;50.786;12.728;2022-12-18T16:00:31;-5.30;99.90
5276;DHT22;2661;50.786;12.728;2022-12-18T16:02:59;-5.20;99.90
5276;DHT22;2661;50.786;12.728;2022-12-18T16:05:26;-5.10;99.90
5276;DHT22;2661;50.786;12.728;2022-12-18T16:07:53;-5.20;99.90
5276;DHT22;2661;50.786;12.728;2022-12-18T16:10:19;-5.10;99.90
5276;DHT22;2661;50.786;12.728;2022-12-18T16:12:46;-5.10;99.90
5276;DHT22;2661;50.786;12.728;2022-12-18T16:15:13;-5.00;99.90
5276;DHT22;2661;50.786;12.728;2022-12-18T16:17:49;-5.00;99.90
5276;DHT22;2661;50.786;12.728;2022-12-18T16:20:17;-5.00;99.90
5276;DHT22;2661;50.786;12.728;2022-12-18T16:22:44;-5.00;99.90
5276;DHT22;2661;50.786;12.728;2022-12-18T16:25:30;-5.00;99.90
5276;DHT22;2661;50.786;12.728;2022-12-18T16:27:56;-5.00;99.90
5276;DHT22;2661;50.786;12.728;2022-12-18T16:30:25;-5.00;99.90
5276;DHT22;2661;50.786;12.728;2022-12-18T16:32:54;-5.00;99.90
5276;DHT22;2661;50.786;12.728;2022-12-18T16:35:21;-5.00;99.90
5276;DHT22;2661;50.786;12.728;2022-12-18T16:37:48;-5.00;99.90
5276;DHT22;2661;50.786;12.728;2022-12-18T16:40:15;-5.00;99.90
5276;DHT22;2661;50.786;12.728;2022-12-18T16:42:44;-5.00;99.90
5276;DHT22;2661;50.786;12.728;2022-12-18T16:45:11;-5.00;99.90
5276;DHT22;2661;50.786;12.728;2022-12-18T16:47:39;-5.10;99.90
5276;DHT22;2661;50.786;12.728;2022-12-18T16:50:06;-5.10;99.90
5276;DHT22;2661;50.786;12.728;2022-12-18T16:52:33;-5.10;99.90
5276;DHT22;2661;50.786;12.728;2022-12-18T16:55:00;-5.20;99.90
5276;DHT22;2661;50.786;12.728;2022-12-18T16:57:28;-5.20;99.90
5276;DHT22;2661;50.786;12.728;2022-12-18T16:59:54;-5.10;99.90
5276;DHT22;2661;50.786;12.728;2022-12-18T17:02:28;-5.20;99.90
5276;DHT22;2661;50.786;12.728;2022-12-18T17:04:55;-5.20;99.90
5276;DHT22;2661;50.786;12.728;2022-12-18T17:07:23;-5.20;99.90
5276;DHT22;2661;50.786;12.728;2022-12-18T17:09:50;-5.20;99.90
5276;DHT22;2661;50.786;12.728;2022-12-18T17:12:16;-5.20;99.90
5276;DHT22;2661;50.786;12.728;2022-12-18T17:14:43;-5.20;99.90
5276;DHT22;2661;50.786;12.728;2022-12-18T17:17:10;-5.20;99.90
5276;DHT22;2661;50.786;12.728;2022-12-18T17:19:52;-5.30;99.90
5276;DHT22;2661;50.786;12.728;2022-12-18T17:22:19;-5.30;99.90
5276;DHT22;2661;50.786;12.728;2022-12-18T17:24:46;-5.10;99.90
5276;DHT22;2661;50.786;12.728;2022-12-18T17:27:13;-5.00;99.90
5276;DHT22;2661;50.786;12.728;2022-12-18T17:29:39;-5.10;99.90
5276;DHT22;2661;50.786;12.728;2022-12-18T17:32:13;-5.00;99.90
5276;DHT22;2661;50.786;12.728;2022-12-18T17:34:39;-5.00;99.90
5276;DHT22;2661;50.786;12.728;2022-12-18T17:37:06;-5.00;99.90
5276;DHT22;2661;50.786;12.728;2022-12-18T17:39:33;-5.00;99.90